Time;durP1;ratioP1;P1;durP2;ratioP2;P2;SDS_P1;SDS_P2;PMS_P1;PMS_P2;Temp;Humidity;BMP_temperature;BMP_pressure;BME280_temperature;BME280_humidity;BME280_pressure;Samples;Min_cycle;Max_cycle;Signal;HPM_P1;HPM_P2
2023/06/07 00:00:49;;;;;;;;;;;19.40;65.20;;;;;;5031240;28;1014;-69
2023/06/07 00:03:15;;;;;;;;;;;19.50;65.30;;;;;;5030667;28;1378;-69
2023/06/07 00:05:41;;;;;;;;;;;19.40;65.20;;;;;;5030882;28;939;-69
2023/06/07 00:08:07;;;;;;;;;;;19.40;65.20;;;;;;5030841;28;859;-69
2023/06/07 00:10:33;;;;;;;;;;;19.40;65.20;;;;;;5030141;28;809;-69
2023/06/07 00:12:59;;;;;;;;;;;19.40;65.20;;;;;;5029911;28;1996;-69
2023/06/07 00:15:24;;;;;;;;;;;19.40;65.30;;;;;;5027129;28;900;-69
2023/06/07 00:17:50;;;;;;;;;;;19.40;65.30;;;;;;5031941;28;951;-69
2023/06/07 00:20:15;;;;;;;;;;;19.40;65.20;;;;;;5030474;28;915;-69
2023/06/07 00:22:41;;;;;;;;;;;19.40;65.20;;;;;;5031049;28;847;-69
2023/06/07 00:25:06;;;;;;;;;;;19.40;65.30;;;;;;5030377;28;1209;-69
2023/06/07 00:27:32;;;;;;;;;;;19.40;65.40;;;;;;5030420;28;1018;-69
2023/06/07 00:29:58;;;;;;;;;;;19.40;65.30;;;;;;5030862;28;963;-69
2023/06/07 00:32:23;;;;;;;;;;;19.40;65.30;;;;;;5026350;28;958;-69
2023/06/07 00:34:49;;;;;;;;;;;19.40;65.30;;;;;;5028237;28;1894;-69
2023/06/07 00:37:14;;;;;;;;;;;19.40;65.30;;;;;;5029975;28;824;-69
2023/06/07 00:39:40;;;;;;;;;;;19.40;65.20;;;;;;5029311;28;1194;-69
2023/06/07 00:42:06;;;;;;;;;;;19.40;65.30;;;;;;5029441;28;1254;-69
2023/06/07 00:44:32;;;;;;;;;;;19.40;65.30;;;;;;5027236;28;1334;-69
2023/06/07 00:46:57;;;;;;;;;;;19.40;65.30;;;;;;5027001;28;833;-70
2023/06/07 00:49:22;;;;;;;;;;;19.50;65.40;;;;;;5026903;28;1271;-70
2023/06/07 00:51:48;;;;;;;;;;;19.40;65.30;;;;;;5029198;28;1341;-70
2023/06/07 00:54:17;;;;;;;;;;;19.40;65.30;;;;;;5027844;28;1970;-69
2023/06/07 00:56:49;;;;;;;;;;;19.40;65.30;;;;;;5020900;28;1393;-69
2023/06/07 00:59:16;;;;;;;;;;;19.40;65.30;;;;;;5028167;28;1252;-69
2023/06/07 01:01:44;;;;;;;;;;;19.40;65.30;;;;;;5026711;28;1327;-69
2023/06/07 01:04:09;;;;;;;;;;;19.40;65.30;;;;;;5027044;28;1344;-69
2023/06/07 01:06:37;;;;;;;;;;;19.40;65.30;;;;;;5028287;28;943;-69
2023/06/07 01:09:05;;;;;;;;;;;19.40;65.30;;;;;;5028734;28;821;-70
2023/06/07 01:11:30;;;;;;;;;;;19.40;65.40;;;;;;5029181;28;1119;-69
2023/06/07 01:13:56;;;;;;;;;;;19.40;65.30;;;;;;5029846;28;1903;-69
2023/06/07 01:16:21;;;;;;;;;;;19.40;65.30;;;;;;5026996;28;1415;-69
2023/06/07 01:18:47;;;;;;;;;;;19.40;65.30;;;;;;5017558;28;828;-69
2023/06/07 01:21:13;;;;;;;;;;;19.40;65.30;;;;;;5029103;28;1279;-69
2023/06/07 01:23:40;;;;;;;;;;;19.40;65.30;;;;;;5025853;28;1322;-69
2023/06/07 01:26:05;;;;;;;;;;;19.40;65.30;;;;;;5028166;28;906;-69
2023/06/07 01:28:33;;;;;;;;;;;19.40;65.30;;;;;;5028928;28;931;-70
2023/06/07 01:31:00;;;;;;;;;;;19.40;65.30;;;;;;5026566;28;928;-69
2023/06/07 01:33:26;;;;;;;;;;;19.40;65.40;;;;;;5029451;28;1907;-69
2023/06/07 01:35:51;;;;;;;;;;;19.40;65.40;;;;;;5028703;28;892;-69
2023/06/07 01:38:19;;;;;;;;;;;19.40;65.30;;;;;;5028195;28;881;-69
2023/06/07 01:40:44;;;;;;;;;;;19.40;65.30;;;;;;5027286;28;907;-69
2023/06/07 01:43:10;;;;;;;;;;;19.40;65.30;;;;;;5028642;28;1285;-69
2023/06/07 01:45:37;;;;;;;;;;;19.40;65.40;;;;;;5023933;28;851;-69
2023/06/07 01:48:02;;;;;;;;;;;19.40;65.30;;;;;;5029366;28;818;-69
2023/06/07 01:50:28;;;;;;;;;;;19.40;65.30;;;;;;5023842;28;867;-69
2023/06/07 01:52:53;;;;;;;;;;;19.40;65.30;;;;;;5027466;28;1253;-69
2023/06/07 01:55:19;;;;;;;;;;;19.40;65.30;;;;;;5027870;28;1878;-69
2023/06/07 01:57:51;;;;;;;;;;;19.40;65.30;;;;;;5029249;28;913;-69
2023/06/07 02:00:25;;;;;;;;;;;19.40;65.30;;;;;;5026288;28;807;-69
2023/06/07 02:02:51;;;;;;;;;;;19.40;65.40;;;;;;5025570;28;1289;-69
2023/06/07 02:05:23;;;;;;;;;;;19.40;65.40;;;;;;5022612;28;891;-69
2023/06/07 02:07:49;;;;;;;;;;;19.40;65.30;;;;;;5026988;28;860;-69
2023/06/07 02:10:16;;;;;;;;;;;19.40;65.40;;;;;;5024382;28;844;-69
2023/06/07 02:12:41;;;;;;;;;;;19.40;65.40;;;;;;5027352;28;903;-69
2023/06/07 02:15:07;;;;;;;;;;;19.40;65.40;;;;;;5027786;28;1914;-69
2023/06/07 02:17:33;;;;;;;;;;;19.40;65.30;;;;;;5027333;28;879;-69
2023/06/07 02:19:58;;;;;;;;;;;19.40;65.40;;;;;;5027242;28;844;-69
2023/06/07 02:22:25;;;;;;;;;;;19.40;65.40;;;;;;5029502;28;809;-70
2023/06/07 02:24:51;;;;;;;;;;;19.40;65.40;;;;;;5027389;28;1241;-69
2023/06/07 02:27:16;;;;;;;;;;;19.40;65.40;;;;;;5027073;28;891;-69
2023/06/07 02:29:42;;;;;;;;;;;19.40;65.40;;;;;;5027067;28;974;-68
2023/06/07 02:32:07;;;;;;;;;;;19.40;65.40;;;;;;5023828;28;1006;-69
2023/06/07 02:34:33;;;;;;;;;;;19.40;65.40;;;;;;5023676;28;1907;-69
2023/06/07 02:36:58;;;;;;;;;;;19.40;65.30;;;;;;5027072;28;1383;-69
2023/06/07 02:39:24;;;;;;;;;;;19.40;65.40;;;;;;5028442;28;1085;-70
2023/06/07 02:41:49;;;;;;;;;;;19.40;65.40;;;;;;5024751;28;1234;-69
2023/06/07 02:44:15;;;;;;;;;;;19.40;65.30;;;;;;5026233;28;1358;-68
2023/06/07 02:46:40;;;;;;;;;;;19.40;65.40;;;;;;5028567;28;1726;-69
2023/06/07 02:49:06;;;;;;;;;;;19.40;65.40;;;;;;5031567;28;1497;-69
2023/06/07 02:51:31;;;;;;;;;;;19.40;65.40;;;;;;5025312;28;1370;-70
2023/06/07 02:53:57;;;;;;;;;;;19.40;65.40;;;;;;5026548;28;1898;-69
2023/06/07 02:56:28;;;;;;;;;;;19.40;65.40;;;;;;5026247;28;1479;-70
2023/06/07 02:58:54;;;;;;;;;;;19.40;65.40;;;;;;5019592;28;1330;-70
2023/06/07 03:01:21;;;;;;;;;;;19.40;65.40;;;;;;5026633;28;1317;-69
2023/06/07 03:03:47;;;;;;;;;;;19.40;65.50;;;;;;5027047;28;1304;-67
2023/06/07 03:06:15;;;;;;;;;;;19.40;65.40;;;;;;5027399;28;958;-68
2023/06/07 03:08:40;;;;;;;;;;;19.40;65.40;;;;;;5024673;28;997;-67
2023/06/07 03:11:06;;;;;;;;;;;19.40;65.40;;;;;;5028800;28;1230;-69
2023/06/07 03:13:31;;;;;;;;;;;19.40;65.40;;;;;;5030138;28;1972;-68
2023/06/07 03:15:57;;;;;;;;;;;19.40;65.40;;;;;;5020728;28;1366;-68
2023/06/07 03:18:23;;;;;;;;;;;19.40;65.40;;;;;;5024743;28;1333;-70
2023/06/07 03:20:48;;;;;;;;;;;19.40;65.40;;;;;;5027359;28;1495;-71
2023/06/07 03:23:14;;;;;;;;;;;19.40;65.40;;;;;;5025269;28;1334;-71
2023/06/07 03:25:40;;;;;;;;;;;19.40;65.40;;;;;;5024486;28;1359;-72
2023/06/07 03:28:05;;;;;;;;;;;19.40;66.20;;;;;;5023850;28;1516;-70
2023/06/07 03:30:30;;;;;;;;;;;19.40;65.40;;;;;;5026728;28;1167;-69
2023/06/07 03:32:56;;;;;;;;;;;19.40;65.40;;;;;;5022030;28;1260;-70
2023/06/07 03:35:21;;;;;;;;;;;19.40;65.50;;;;;;5028176;28;1939;-70
2023/06/07 03:37:47;;;;;;;;;;;19.40;65.40;;;;;;5022673;28;884;-69
2023/06/07 03:40:13;;;;;;;;;;;19.40;65.50;;;;;;5028187;28;859;-69
2023/06/07 03:42:38;;;;;;;;;;;19.40;65.40;;;;;;5031121;28;1271;-69
2023/06/07 03:45:04;;;;;;;;;;;19.40;65.50;;;;;;5030380;28;1300;-69
2023/06/07 03:47:30;;;;;;;;;;;19.40;65.40;;;;;;5029283;28;821;-69
2023/06/07 03:49:55;;;;;;;;;;;19.40;65.40;;;;;;5030877;28;832;-69
2023/06/07 03:52:22;;;;;;;;;;;19.40;65.50;;;;;;5028136;28;1034;-70
2023/06/07 03:54:47;;;;;;;;;;;19.40;65.50;;;;;;5026465;28;1985;-69
2023/06/07 03:57:13;;;;;;;;;;;19.40;65.50;;;;;;5032101;28;1576;-69
2023/06/07 03:59:38;;;;;;;;;;;19.40;65.50;;;;;;5028819;28;913;-70
2023/06/07 04:02:04;;;;;;;;;;;19.40;65.50;;;;;;5030933;28;868;-70
2023/06/07 04:04:32;;;;;;;;;;;19.40;65.50;;;;;;5030988;28;1290;-69
2023/06/07 04:06:58;;;;;;;;;;;19.40;65.50;;;;;;5031370;28;896;-69
2023/06/07 04:09:23;;;;;;;;;;;19.40;65.50;;;;;;5030216;28;1392;-69
2023/06/07 04:11:49;;;;;;;;;;;19.40;65.50;;;;;;5030740;28;845;-69
2023/06/07 04:14:14;;;;;;;;;;;19.40;65.50;;;;;;5031034;28;1973;-71
2023/06/07 04:16:40;;;;;;;;;;;19.40;65.50;;;;;;5030835;28;1190;-71
2023/06/07 04:19:05;;;;;;;;;;;19.40;65.50;;;;;;5031580;28;867;-71
2023/06/07 04:21:32;;;;;;;;;;;19.40;65.50;;;;;;5028923;28;860;-70
2023/06/07 04:23:58;;;;;;;;;;;19.40;65.60;;;;;;5029403;28;1313;-69
2023/06/07 04:26:23;;;;;;;;;;;19.40;65.50;;;;;;5030895;28;1044;-69
2023/06/07 04:28:49;;;;;;;;;;;19.40;65.50;;;;;;5027453;28;1042;-68
2023/06/07 04:31:15;;;;;;;;;;;19.40;65.60;;;;;;5030660;28;899;-72
2023/06/07 04:33:41;;;;;;;;;;;19.40;65.50;;;;;;5029869;28;1887;-71
2023/06/07 04:36:08;;;;;;;;;;;19.40;65.50;;;;;;5027096;28;836;-70
2023/06/07 04:38:34;;;;;;;;;;;19.40;65.50;;;;;;5029140;28;894;-72
2023/06/07 04:41:00;;;;;;;;;;;19.40;65.60;;;;;;5013992;28;1295;-71
2023/06/07 04:43:26;;;;;;;;;;;19.40;65.50;;;;;;5029474;28;1549;-72
2023/06/07 04:45:54;;;;;;;;;;;19.40;65.50;;;;;;5029621;28;1077;-70
2023/06/07 04:48:23;;;;;;;;;;;19.40;65.50;;;;;;5027866;28;927;-71
2023/06/07 04:50:49;;;;;;;;;;;19.40;65.60;;;;;;5024715;28;1133;-71
2023/06/07 04:53:19;;;;;;;;;;;19.40;65.50;;;;;;5030039;28;1898;-71
2023/06/07 04:55:45;;;;;;;;;;;19.40;65.50;;;;;;5029658;28;914;-70
2023/06/07 04:58:11;;;;;;;;;;;19.40;65.60;;;;;;5028562;28;1374;-70
2023/06/07 05:00:38;;;;;;;;;;;19.40;65.50;;;;;;5029175;28;899;-70
2023/06/07 05:03:08;;;;;;;;;;;19.40;65.50;;;;;;5027818;28;1258;-68
2023/06/07 05:05:33;;;;;;;;;;;19.40;65.50;;;;;;5030185;28;918;-69
2023/06/07 05:07:59;;;;;;;;;;;19.40;65.60;;;;;;5029125;28;906;-70
2023/06/07 05:10:25;;;;;;;;;;;19.40;65.50;;;;;;5029467;28;815;-68
2023/06/07 05:12:50;;;;;;;;;;;19.40;65.50;;;;;;5029673;28;1358;-69
2023/06/07 05:15:16;;;;;;;;;;;19.40;65.50;;;;;;5029020;28;1964;-70
2023/06/07 05:17:41;;;;;;;;;;;19.40;65.50;;;;;;5027652;28;855;-69
2023/06/07 05:20:10;;;;;;;;;;;19.40;65.50;;;;;;5029880;28;874;-69
2023/06/07 05:22:36;;;;;;;;;;;19.40;65.60;;;;;;5018810;28;1879;-69
2023/06/07 05:25:02;;;;;;;;;;;19.40;65.60;;;;;;5029945;28;1256;-69
2023/06/07 05:27:27;;;;;;;;;;;19.40;65.60;;;;;;5028371;28;1058;-68
2023/06/07 05:29:52;;;;;;;;;;;19.30;65.50;;;;;;5029040;28;1022;-68
2023/06/07 05:32:18;;;;;;;;;;;19.40;65.50;;;;;;5028304;28;1397;-70
2023/06/07 05:34:45;;;;;;;;;;;19.40;65.60;;;;;;5029147;28;1971;-70
2023/06/07 05:37:12;;;;;;;;;;;19.40;65.60;;;;;;5025974;28;903;-69
2023/06/07 05:39:37;;;;;;;;;;;19.40;65.50;;;;;;5024351;28;1354;-70
2023/06/07 05:42:03;;;;;;;;;;;19.40;65.60;;;;;;5029571;28;1349;-70
2023/06/07 05:44:29;;;;;;;;;;;19.40;65.60;;;;;;5028341;28;1263;-70
2023/06/07 05:46:54;;;;;;;;;;;19.40;65.60;;;;;;5029194;28;894;-69
2023/06/07 05:49:20;;;;;;;;;;;19.40;65.60;;;;;;5026683;28;848;-70
2023/06/07 05:51:45;;;;;;;;;;;19.40;65.60;;;;;;5028553;28;832;-70
2023/06/07 05:54:11;;;;;;;;;;;19.40;65.60;;;;;;5028318;28;1967;-69
2023/06/07 05:56:36;;;;;;;;;;;19.30;65.50;;;;;;5028800;28;880;-71
2023/06/07 05:59:01;;;;;;;;;;;19.40;65.60;;;;;;5029592;28;793;-70
2023/06/07 06:01:29;;;;;;;;;;;19.40;66.30;;;;;;5027906;28;885;-71
2023/06/07 06:03:54;;;;;;;;;;;19.40;65.60;;;;;;5024660;28;1354;-69
2023/06/07 06:06:20;;;;;;;;;;;19.40;65.60;;;;;;5027468;28;876;-69
2023/06/07 06:08:46;;;;;;;;;;;19.40;65.60;;;;;;5018601;28;871;-68
2023/06/07 06:11:12;;;;;;;;;;;19.30;65.50;;;;;;5028066;28;1189;-68
2023/06/07 06:13:40;;;;;;;;;;;19.40;65.60;;;;;;5029846;28;1953;-68
2023/06/07 06:16:06;;;;;;;;;;;19.30;65.50;;;;;;5029470;28;867;-68
2023/06/07 06:18:31;;;;;;;;;;;19.40;65.60;;;;;;5023942;28;920;-68
2023/06/07 06:20:57;;;;;;;;;;;19.30;65.50;;;;;;5027002;28;1357;-68
2023/06/07 06:23:23;;;;;;;;;;;19.40;65.60;;;;;;5028618;28;1290;-68
2023/06/07 06:25:48;;;;;;;;;;;19.30;65.50;;;;;;5023881;28;782;-68
2023/06/07 06:28:14;;;;;;;;;;;19.30;65.50;;;;;;5028653;28;1199;-68
2023/06/07 06:30:39;;;;;;;;;;;19.30;65.50;;;;;;5024124;28;817;-68
2023/06/07 06:33:05;;;;;;;;;;;19.30;65.50;;;;;;5027223;28;1282;-69
2023/06/07 06:35:32;;;;;;;;;;;19.40;65.60;;;;;;5026972;28;1906;-69
2023/06/07 06:38:01;;;;;;;;;;;19.40;65.60;;;;;;5027116;28;904;-68
2023/06/07 06:40:26;;;;;;;;;;;19.40;65.60;;;;;;5010762;28;1259;-67
2023/06/07 06:42:52;;;;;;;;;;;19.30;65.60;;;;;;5028497;28;1262;-67
2023/06/07 06:45:18;;;;;;;;;;;19.40;65.60;;;;;;5027521;28;896;-67
2023/06/07 06:47:43;;;;;;;;;;;19.40;65.60;;;;;;5025868;28;844;-68
2023/06/07 06:50:10;;;;;;;;;;;19.30;65.50;;;;;;5028600;28;821;-68
2023/06/07 06:52:35;;;;;;;;;;;19.30;65.60;;;;;;5025749;28;880;-68
2023/06/07 06:55:01;;;;;;;;;;;19.30;65.60;;;;;;5028649;28;1979;-68
2023/06/07 06:57:26;;;;;;;;;;;19.40;65.60;;;;;;5024223;28;807;-68
2023/06/07 06:59:52;;;;;;;;;;;19.30;65.50;;;;;;5028732;28;847;-68
2023/06/07 07:02:17;;;;;;;;;;;19.30;65.50;;;;;;5027135;28;1095;-68
2023/06/07 07:04:43;;;;;;;;;;;19.30;65.50;;;;;;5025108;28;1328;-68
2023/06/07 07:07:09;;;;;;;;;;;19.30;65.60;;;;;;5027316;28;929;-69
2023/06/07 07:09:35;;;;;;;;;;;19.30;65.50;;;;;;5025482;28;836;-69
2023/06/07 07:12:00;;;;;;;;;;;19.40;65.60;;;;;;5027142;28;890;-71
2023/06/07 07:14:26;;;;;;;;;;;19.40;65.60;;;;;;5030475;28;1985;-69
2023/06/07 07:16:52;;;;;;;;;;;19.30;65.60;;;;;;5029284;28;818;-69
2023/06/07 07:19:18;;;;;;;;;;;19.40;65.60;;;;;;5031312;28;940;-69
2023/06/07 07:21:43;;;;;;;;;;;19.40;65.60;;;;;;5029977;28;942;-69
2023/06/07 07:24:09;;;;;;;;;;;19.30;65.60;;;;;;5030811;28;2000;-69
2023/06/07 07:26:35;;;;;;;;;;;19.30;65.60;;;;;;5027913;28;1326;-69
2023/06/07 07:29:01;;;;;;;;;;;19.30;65.60;;;;;;5032538;28;1360;-69
2023/06/07 07:31:29;;;;;;;;;;;19.30;65.60;;;;;;5030733;28;1002;-68
2023/06/07 07:33:55;;;;;;;;;;;19.30;65.60;;;;;;5029632;28;1898;-68
2023/06/07 07:36:21;;;;;;;;;;;19.30;65.60;;;;;;5030994;28;804;-68
2023/06/07 07:38:47;;;;;;;;;;;19.40;65.70;;;;;;5031262;28;903;-68
2023/06/07 07:41:13;;;;;;;;;;;19.30;65.60;;;;;;5030101;28;2270;-68
2023/06/07 07:43:38;;;;;;;;;;;19.40;65.70;;;;;;5031782;28;1437;-69
2023/06/07 07:46:04;;;;;;;;;;;19.30;65.60;;;;;;5031161;28;908;-69
2023/06/07 07:48:29;;;;;;;;;;;19.30;65.60;;;;;;5032059;28;1486;-69
2023/06/07 07:50:55;;;;;;;;;;;19.40;65.60;;;;;;5031543;28;1334;-69
2023/06/07 07:53:20;;;;;;;;;;;19.30;65.60;;;;;;5032028;28;1977;-69
2023/06/07 07:55:46;;;;;;;;;;;19.40;65.70;;;;;;5030413;28;1066;-69
2023/06/07 07:58:11;;;;;;;;;;;19.30;65.60;;;;;;5031150;28;930;-69
2023/06/07 08:00:37;;;;;;;;;;;19.30;65.60;;;;;;5031227;28;868;-69
2023/06/07 08:03:03;;;;;;;;;;;19.30;65.60;;;;;;5033325;28;1269;-69
2023/06/07 08:05:28;;;;;;;;;;;19.40;65.70;;;;;;5032235;28;896;-69
2023/06/07 08:07:54;;;;;;;;;;;19.30;65.60;;;;;;5027368;28;965;-69
2023/06/07 08:10:19;;;;;;;;;;;19.30;65.60;;;;;;5030676;28;848;-68
2023/06/07 08:12:51;;;;;;;;;;;19.30;65.60;;;;;;5029838;28;1363;-68
2023/06/07 08:15:16;;;;;;;;;;;19.30;65.60;;;;;;5030319;28;1956;-68
2023/06/07 08:17:42;;;;;;;;;;;19.30;65.60;;;;;;5028399;28;931;-68
2023/06/07 08:20:08;;;;;;;;;;;19.30;65.60;;;;;;5025927;28;887;-68
2023/06/07 08:22:34;;;;;;;;;;;19.30;65.60;;;;;;5027579;28;836;-68
2023/06/07 08:25:00;;;;;;;;;;;19.30;65.60;;;;;;5026570;28;1279;-68
2023/06/07 08:27:26;;;;;;;;;;;19.40;65.70;;;;;;5028244;28;872;-69
2023/06/07 08:29:51;;;;;;;;;;;19.30;65.60;;;;;;5027171;28;868;-69
2023/06/07 08:32:17;;;;;;;;;;;19.30;65.60;;;;;;5031235;28;825;-68
2023/06/07 08:34:42;;;;;;;;;;;19.30;65.60;;;;;;5027542;28;1906;-68
2023/06/07 08:37:08;;;;;;;;;;;19.30;65.60;;;;;;5025898;28;827;-67
2023/06/07 08:39:33;;;;;;;;;;;19.30;65.60;;;;;;5030965;28;871;-69
2023/06/07 08:41:59;;;;;;;;;;;19.30;65.60;;;;;;5030320;28;1452;-69
2023/06/07 08:44:27;;;;;;;;;;;19.30;65.60;;;;;;5026707;28;1266;-69
2023/06/07 08:46:53;;;;;;;;;;;19.30;65.70;;;;;;5028879;28;865;-67
2023/06/07 08:49:18;;;;;;;;;;;19.30;65.60;;;;;;5030693;28;1330;-67
2023/06/07 08:51:44;;;;;;;;;;;19.30;65.70;;;;;;5029001;28;947;-70
2023/06/07 08:54:10;;;;;;;;;;;19.30;65.60;;;;;;5033206;28;1969;-70
2023/06/07 08:56:38;;;;;;;;;;;19.30;65.70;;;;;;5029543;28;872;-70
2023/06/07 08:59:04;;;;;;;;;;;19.30;65.60;;;;;;5027590;28;884;-70
2023/06/07 09:01:29;;;;;;;;;;;19.30;65.60;;;;;;5031358;28;1277;-68
2023/06/07 09:03:55;;;;;;;;;;;19.30;65.60;;;;;;5028142;28;1273;-69
2023/06/07 09:06:21;;;;;;;;;;;19.40;66.40;;;;;;5032434;28;916;-70
2023/06/07 09:08:46;;;;;;;;;;;19.30;65.60;;;;;;5032369;28;792;-69
2023/06/07 09:11:12;;;;;;;;;;;19.30;65.60;;;;;;5032152;28;876;-70
2023/06/07 09:13:38;;;;;;;;;;;19.30;65.60;;;;;;5032696;28;1894;-69
2023/06/07 09:16:04;;;;;;;;;;;19.40;65.70;;;;;;5029199;28;856;-68
2023/06/07 09:18:40;;;;;;;;;;;19.30;66.40;;;;;;5023374;28;864;-69
2023/06/07 09:21:40;;;;;;;;;;;19.30;65.60;;;;;;5023416;28;904;-69
2023/06/07 09:24:05;;;;;;;;;;;19.30;65.60;;;;;;5017157;28;1300;-68
2023/06/07 09:26:35;;;;;;;;;;;19.30;65.60;;;;;;5030080;28;915;-69
2023/06/07 09:29:04;;;;;;;;;;;19.30;65.70;;;;;;5027259;28;912;-69
2023/06/07 09:31:32;;;;;;;;;;;19.40;65.70;;;;;;5028854;28;1355;-68
2023/06/07 09:33:57;;;;;;;;;;;19.40;65.70;;;;;;5026075;28;1968;-68
2023/06/07 09:36:23;;;;;;;;;;;19.30;65.60;;;;;;5026475;28;1322;-68
2023/06/07 09:38:48;;;;;;;;;;;19.40;65.70;;;;;;5027957;28;1328;-68
2023/06/07 09:41:14;;;;;;;;;;;19.40;65.70;;;;;;5028532;28;1321;-68
2023/06/07 09:43:42;;;;;;;;;;;19.40;65.70;;;;;;5026518;28;2114;-69
2023/06/07 09:46:08;;;;;;;;;;;19.30;65.60;;;;;;5027599;28;1448;-69
2023/06/07 09:48:46;;;;;;;;;;;19.30;65.60;;;;;;5029856;28;1495;-69
2023/06/07 09:51:11;;;;;;;;;;;19.30;65.60;;;;;;5028863;28;978;-69
2023/06/07 09:53:56;;;;;;;;;;;19.30;65.60;;;;;;5026584;28;1966;-69
2023/06/07 09:56:22;;;;;;;;;;;19.30;65.70;;;;;;5018580;28;1595;-69
2023/06/07 09:58:51;;;;;;;;;;;19.40;65.70;;;;;;5027311;28;1195;-69
2023/06/07 10:01:37;;;;;;;;;;;19.40;65.80;;;;;;5028442;28;869;-69
2023/06/07 10:04:03;;;;;;;;;;;19.30;65.70;;;;;;5028927;28;1829;-69
2023/06/07 10:06:30;;;;;;;;;;;19.30;65.70;;;;;;5028630;28;935;-69
2023/06/07 10:08:56;;;;;;;;;;;19.30;65.60;;;;;;5029150;28;886;-69
2023/06/07 10:11:22;;;;;;;;;;;19.30;65.70;;;;;;5025703;28;912;-69
2023/06/07 10:13:47;;;;;;;;;;;19.30;65.70;;;;;;5027526;28;1894;-69
2023/06/07 10:16:13;;;;;;;;;;;19.30;65.70;;;;;;5027036;28;1318;-69
2023/06/07 10:18:39;;;;;;;;;;;19.30;65.60;;;;;;5029268;28;865;-69
2023/06/07 10:21:15;;;;;;;;;;;19.40;65.70;;;;;;5021485;28;1046;-69
2023/06/07 10:23:46;;;;;;;;;;;19.30;65.60;;;;;;5024127;28;1318;-69
2023/06/07 10:26:30;;;;;;;;;;;19.30;65.70;;;;;;5026573;28;859;-69
2023/06/07 10:28:58;;;;;;;;;;;19.40;65.70;;;;;;5025602;28;955;-69
2023/06/07 10:31:26;;;;;;;;;;;19.30;65.70;;;;;;5027741;28;879;-69
2023/06/07 10:33:51;;;;;;;;;;;19.30;65.70;;;;;;5027452;28;1898;-69
2023/06/07 10:36:19;;;;;;;;;;;19.30;65.60;;;;;;5028345;28;906;-69
2023/06/07 10:38:44;;;;;;;;;;;19.30;65.60;;;;;;5026315;28;824;-69
2023/06/07 10:41:10;;;;;;;;;;;19.30;65.70;;;;;;5025724;28;1256;-69
2023/06/07 10:43:36;;;;;;;;;;;19.30;65.60;;;;;;5019272;28;1306;-69
2023/06/07 10:46:21;;;;;;;;;;;19.30;65.70;;;;;;5011633;28;1468;-69
2023/06/07 10:48:47;;;;;;;;;;;19.30;65.70;;;;;;5031119;28;942;-69
2023/06/07 10:51:12;;;;;;;;;;;19.30;65.70;;;;;;5030536;28;827;-69
2023/06/07 10:53:58;;;;;;;;;;;19.40;65.70;;;;;;5029441;28;1886;-69
2023/06/07 10:56:30;;;;;;;;;;;19.30;65.60;;;;;;5031688;28;1038;-69
2023/06/07 10:59:14;;;;;;;;;;;19.30;65.70;;;;;;5028582;28;942;-69
2023/06/07 11:01:40;;;;;;;;;;;19.30;65.70;;;;;;5030464;28;877;-69
2023/06/07 11:04:05;;;;;;;;;;;19.30;65.60;;;;;;5032500;28;1694;-69
2023/06/07 11:06:33;;;;;;;;;;;19.30;65.70;;;;;;5030224;28;849;-69
2023/06/07 11:09:17;;;;;;;;;;;19.40;65.70;;;;;;5026798;28;957;-69
2023/06/07 11:11:43;;;;;;;;;;;19.40;65.70;;;;;;5031460;28;1194;-69
2023/06/07 11:14:09;;;;;;;;;;;19.30;65.70;;;;;;5031780;28;1979;-69
2023/06/07 11:16:35;;;;;;;;;;;19.30;65.70;;;;;;5031121;28;820;-69
2023/06/07 11:19:04;;;;;;;;;;;19.30;65.70;;;;;;5032234;28;823;-69
2023/06/07 11:21:30;;;;;;;;;;;19.30;65.70;;;;;;5031223;28;844;-69
2023/06/07 11:24:08;;;;;;;;;;;19.30;65.70;;;;;;5029858;28;1408;-69
2023/06/07 11:26:36;;;;;;;;;;;19.30;65.70;;;;;;5030176;28;1034;-69
2023/06/07 11:29:05;;;;;;;;;;;19.30;65.60;;;;;;5029869;28;847;-70
2023/06/07 11:31:31;;;;;;;;;;;19.30;65.60;;;;;;5028961;28;911;-70
2023/06/07 11:33:56;;;;;;;;;;;19.40;65.70;;;;;;5013453;28;1991;-70
2023/06/07 11:36:22;;;;;;;;;;;19.30;65.70;;;;;;5032202;28;825;-70
2023/06/07 11:38:48;;;;;;;;;;;19.30;65.70;;;;;;5032994;28;891;-70
2023/06/07 11:41:13;;;;;;;;;;;19.30;66.40;;;;;;5030796;28;1587;-70
2023/06/07 11:43:39;;;;;;;;;;;19.40;65.70;;;;;;5031315;28;1366;-70
2023/06/07 11:46:04;;;;;;;;;;;19.30;65.70;;;;;;5031731;28;876;-70
2023/06/07 11:48:30;;;;;;;;;;;19.30;65.60;;;;;;5031712;28;816;-70
2023/06/07 11:50:56;;;;;;;;;;;19.40;65.70;;;;;;5029258;28;998;-70
2023/06/07 11:53:21;;;;;;;;;;;19.40;65.70;;;;;;5029224;28;1969;-70
2023/06/07 11:55:47;;;;;;;;;;;19.30;65.70;;;;;;5032065;28;875;-70
2023/06/07 11:58:12;;;;;;;;;;;19.40;65.70;;;;;;5030595;28;1048;-70
2023/06/07 12:00:39;;;;;;;;;;;19.30;65.70;;;;;;5027250;28;863;-70
2023/06/07 12:03:04;;;;;;;;;;;19.30;65.70;;;;;;5030364;28;1286;-70
2023/06/07 12:05:30;;;;;;;;;;;19.40;65.70;;;;;;5029322;28;1371;-70
2023/06/07 12:07:59;;;;;;;;;;;19.40;65.70;;;;;;5027111;28;863;-70
2023/06/07 12:10:27;;;;;;;;;;;19.40;65.80;;;;;;5028920;28;856;-70
2023/06/07 12:13:11;;;;;;;;;;;19.40;65.70;;;;;;5029101;28;1779;-70
2023/06/07 12:15:46;;;;;;;;;;;19.40;65.70;;;;;;5025953;28;1969;-70
2023/06/07 12:18:12;;;;;;;;;;;19.40;65.70;;;;;;5027617;28;946;-70
2023/06/07 12:20:38;;;;;;;;;;;19.40;65.70;;;;;;5029422;28;887;-70
2023/06/07 12:23:04;;;;;;;;;;;19.40;65.70;;;;;;5030878;28;1280;-70
2023/06/07 12:25:29;;;;;;;;;;;19.40;65.70;;;;;;5029648;28;888;-70
2023/06/07 12:27:55;;;;;;;;;;;19.40;65.70;;;;;;5028790;28;863;-70
2023/06/07 12:30:20;;;;;;;;;;;19.40;65.70;;;;;;5029801;28;826;-70
2023/06/07 12:32:46;;;;;;;;;;;19.40;65.70;;;;;;5027994;28;1265;-70
2023/06/07 12:35:12;;;;;;;;;;;19.40;65.70;;;;;;5029132;28;1906;-70
2023/06/07 12:37:37;;;;;;;;;;;19.30;65.60;;;;;;5025673;28;805;-70
2023/06/07 12:40:07;;;;;;;;;;;19.40;65.70;;;;;;5028347;28;1006;-70
2023/06/07 12:42:32;;;;;;;;;;;19.30;65.70;;;;;;5030662;28;1530;-70
2023/06/07 12:44:58;;;;;;;;;;;19.40;65.70;;;;;;5009285;28;1386;-70
2023/06/07 12:47:23;;;;;;;;;;;19.40;65.70;;;;;;5028490;28;1233;-69
2023/06/07 12:49:49;;;;;;;;;;;19.30;65.70;;;;;;5030039;28;878;-69
2023/06/07 12:52:14;;;;;;;;;;;19.40;65.70;;;;;;5030707;28;1057;-69
2023/06/07 12:54:40;;;;;;;;;;;19.40;65.70;;;;;;5029893;28;1903;-68
2023/06/07 12:57:06;;;;;;;;;;;19.40;65.70;;;;;;5030924;28;861;-70
2023/06/07 12:59:31;;;;;;;;;;;19.30;65.70;;;;;;5031064;28;859;-70
2023/06/07 13:01:57;;;;;;;;;;;19.40;65.70;;;;;;5029029;28;818;-70
2023/06/07 13:04:23;;;;;;;;;;;19.40;65.70;;;;;;5029384;28;1249;-70
2023/06/07 13:06:49;;;;;;;;;;;19.40;65.70;;;;;;5026370;28;1302;-70
2023/06/07 13:09:14;;;;;;;;;;;19.40;65.70;;;;;;5027323;28;879;-70
2023/06/07 13:11:40;;;;;;;;;;;19.40;65.70;;;;;;5027330;28;1061;-70
2023/06/07 13:14:07;;;;;;;;;;;19.40;65.70;;;;;;5029815;28;1918;-70
2023/06/07 13:16:32;;;;;;;;;;;19.40;65.70;;;;;;5030419;28;941;-69
2023/06/07 13:18:59;;;;;;;;;;;19.40;65.70;;;;;;5030826;28;1290;-70
2023/06/07 13:21:25;;;;;;;;;;;19.40;65.70;;;;;;5027553;28;1445;-70
2023/06/07 13:23:51;;;;;;;;;;;19.40;65.70;;;;;;5026848;28;1335;-69
2023/06/07 13:26:16;;;;;;;;;;;19.40;65.70;;;;;;5027858;28;1693;-69
2023/06/07 13:28:44;;;;;;;;;;;19.40;65.70;;;;;;5027078;28;1498;-72
2023/06/07 13:31:13;;;;;;;;;;;19.40;65.70;;;;;;5027281;28;1436;-69
2023/06/07 13:33:38;;;;;;;;;;;19.40;65.70;;;;;;5024805;28;1918;-69
2023/06/07 13:36:04;;;;;;;;;;;19.40;65.80;;;;;;5020812;28;1357;-70
2023/06/07 13:38:30;;;;;;;;;;;19.40;65.70;;;;;;5026159;28;1411;-70
2023/06/07 13:40:55;;;;;;;;;;;19.40;65.70;;;;;;5025939;28;1351;-70
2023/06/07 13:43:21;;;;;;;;;;;19.40;65.70;;;;;;5027848;28;1481;-71
2023/06/07 13:45:46;;;;;;;;;;;19.40;65.70;;;;;;5025693;28;1603;-71
2023/06/07 13:48:11;;;;;;;;;;;19.40;65.70;;;;;;5030329;28;884;-70
2023/06/07 13:50:38;;;;;;;;;;;19.40;65.80;;;;;;5028177;28;1996;-68
2023/06/07 13:53:04;;;;;;;;;;;19.40;65.70;;;;;;5028610;28;1209;-69
2023/06/07 13:55:29;;;;;;;;;;;19.40;65.80;;;;;;5027034;28;1898;-68
2023/06/07 13:57:55;;;;;;;;;;;19.40;65.80;;;;;;5027481;28;1295;-69
2023/06/07 14:00:21;;;;;;;;;;;19.40;65.80;;;;;;5022778;28;884;-70
2023/06/07 14:02:46;;;;;;;;;;;19.40;65.70;;;;;;5029149;28;1390;-69
2023/06/07 14:05:13;;;;;;;;;;;19.40;65.80;;;;;;5027834;28;808;-69
2023/06/07 14:07:39;;;;;;;;;;;19.40;65.70;;;;;;5028412;28;884;-70
2023/06/07 14:10:04;;;;;;;;;;;19.40;65.70;;;;;;5027600;28;1018;-69
2023/06/07 14:12:30;;;;;;;;;;;19.40;65.80;;;;;;5028134;28;1330;-69
2023/06/07 14:14:55;;;;;;;;;;;19.40;65.80;;;;;;5028555;28;1993;-69
2023/06/07 14:17:21;;;;;;;;;;;19.40;65.80;;;;;;5028283;28;900;-69
2023/06/07 14:19:46;;;;;;;;;;;19.40;65.80;;;;;;5026758;28;1061;-69
2023/06/07 14:22:12;;;;;;;;;;;19.40;65.80;;;;;;5029083;28;834;-69
2023/06/07 14:24:37;;;;;;;;;;;19.40;65.80;;;;;;5025496;28;1279;-70
2023/06/07 14:27:03;;;;;;;;;;;19.40;65.80;;;;;;5026013;28;1038;-70
2023/06/07 14:29:28;;;;;;;;;;;19.40;65.80;;;;;;5028020;28;820;-70
2023/06/07 14:31:54;;;;;;;;;;;19.40;65.80;;;;;;5028408;28;855;-70